Terminal Aerodrome Forecast
Issued by NWS

Home | Current Version | Previous Version | Text Only | Print | Product List | Glossary On
Versions: 1 2 3 4 5 6 7 8 9 10 11 12 13
000
FTUS41 KBTV 021720
TAFRUT
TAF
KRUT 021720Z 0218/0318 30005KT P6SM SCT250
     FM030000 13004KT P6SM SCT250
     FM031200 35004KT P6SM VCSH SCT025 SCT250
      AMD LTD TO CLD VIS AND WIND=

USA.gov is the U.S. government's official web portal to all federal, state and local government web resources and services.